Time;durP1;ratioP1;P1;durP2;ratioP2;P2;SDS_P1;SDS_P2;PMS_P1;PMS_P2;Temp;Humidity;BMP_temperature;BMP_pressure;BME280_temperature;BME280_humidity;BME280_pressure;Samples;Min_cycle;Max_cycle;Signal;HPM_P1;HPM_P2
2022/08/12 00:43:27;;;;;;;0.85;0.75;;;21.10;53.90;;;;;;5016031;28;20060;-76
2022/08/12 00:48:39;;;;;;;1.42;0.70;;;21.00;54.50;;;;;;5015143;28;20036;-77
2022/08/12 00:51:06;;;;;;;1.48;0.90;;;20.90;55.30;;;;;;5015756;28;20161;-77
2022/08/12 00:53:33;;;;;;;1.23;0.77;;;20.80;55.50;;;;;;5015604;28;20030;-76
2022/08/12 00:56:00;;;;;;;1.55;0.75;;;20.80;56.10;;;;;;5015646;28;20034;-76
2022/08/12 00:58:28;;;;;;;0.88;0.60;;;20.80;55.80;;;;;;5015734;28;20113;-76
2022/08/12 01:01:07;;;;;;;0.80;0.68;;;20.80;55.70;;;;;;5014953;28;20474;-76
2022/08/12 01:11:53;;;;;;;1.73;0.75;;;20.80;55.60;;;;;;5014736;28;20033;-76
2022/08/12 01:14:22;;;;;;;0.60;0.60;;;20.80;55.60;;;;;;5015625;28;20049;-75
2022/08/12 01:16:50;;;;;;;0.93;0.70;;;20.80;55.50;;;;;;5014648;28;20053;-76
2022/08/12 01:19:19;;;;;;;1.02;0.80;;;20.80;55.70;;;;;;5015286;28;20061;-75
2022/08/12 01:22:04;;;;;;;0.90;0.68;;;20.70;55.90;;;;;;5014583;28;20402;-77
2022/08/12 01:24:35;;;;;;;1.13;0.77;;;20.70;55.50;;;;;;5015222;28;20030;-77
2022/08/12 01:27:02;;;;;;;0.75;0.65;;;20.70;55.70;;;;;;5014675;28;20041;-77
2022/08/12 01:29:30;;;;;;;0.70;0.60;;;20.70;55.90;;;;;;5015078;28;20426;-77
2022/08/12 01:31:58;;;;;;;1.02;0.70;;;20.70;55.70;;;;;;5014515;28;20030;-77
2022/08/12 01:34:31;;;;;;;0.70;0.63;;;20.60;56.10;;;;;;5014727;28;20033;-76
2022/08/12 01:37:00;;;;;;;0.60;0.60;;;20.50;56.80;;;;;;5014689;28;20061;-76
2022/08/12 01:39:33;;;;;;;0.60;0.60;;;20.40;57.00;;;;;;5015036;28;20030;-77
2022/08/12 01:42:07;;;;;;;0.70;0.57;;;20.40;56.90;;;;;;5014692;28;20598;-76
2022/08/12 01:44:35;;;;;;;0.50;0.50;;;20.40;57.00;;;;;;5014880;28;20101;-79
2022/08/12 01:47:17;;;;;;;1.58;0.60;;;20.30;57.30;;;;;;5015075;28;20034;-76
2022/08/12 01:50:04;;;;;;;1.15;0.70;;;20.40;57.10;;;;;;5014430;28;20076;-76
2022/08/12 01:53:11;;;;;;;0.80;0.55;;;20.40;57.20;;;;;;5014511;28;20362;-75
2022/08/12 01:55:40;;;;;;;1.30;0.70;;;20.40;57.20;;;;;;5013609;28;20475;-78
2022/08/12 01:58:14;;;;;;;2.92;0.80;;;20.50;57.10;;;;;;5014043;28;20026;-76
2022/08/12 02:00:47;;;;;;;0.85;0.63;;;20.40;57.30;;;;;;5013909;28;20095;-76
2022/08/12 02:03:16;;;;;;;2.45;0.65;;;20.40;57.10;;;;;;5014353;28;20053;-75
2022/08/12 02:12:00;;;;;;;1.52;0.60;;;20.40;57.40;;;;;;4994065;28;20033;-77
2022/08/12 02:15:01;;;;;;;3.58;0.77;;;20.30;57.90;;;;;;4994376;28;20076;-76
2022/08/12 02:17:52;;;;;;;3.35;0.70;;;20.30;58.10;;;;;;4994356;28;20034;-77
2022/08/12 02:20:49;;;;;;;1.98;1.13;;;20.30;58.50;;;;;;4994634;28;20054;-76
2022/08/12 02:23:16;;;;;;;1.00;0.60;;;20.10;58.90;;;;;;4980034;28;20484;-76
2022/08/12 02:25:46;;;;;;;1.02;0.68;;;20.10;58.90;;;;;;4994104;28;20034;-76
2022/08/12 02:28:12;;;;;;;1.15;0.82;;;20.00;59.20;;;;;;4995544;28;20479;-77
2022/08/12 02:30:38;;;;;;;0.55;0.55;;;20.00;59.60;;;;;;4996178;28;20034;-77
2022/08/12 02:33:05;;;;;;;1.02;0.70;;;20.00;59.30;;;;;;5013766;28;20018;-77
2022/08/12 02:35:34;;;;;;;1.30;0.70;;;19.90;59.60;;;;;;5013699;28;20072;-77
2022/08/12 02:38:09;;;;;;;1.08;0.80;;;19.90;60.80;;;;;;5012278;28;20406;-76
2022/08/12 02:40:38;;;;;;;2.05;0.50;;;19.80;60.70;;;;;;5013868;28;20022;-76
2022/08/12 02:43:18;;;;;;;1.13;0.63;;;19.80;60.70;;;;;;5013822;28;20026;-77
2022/08/12 02:45:56;;;;;;;1.75;0.73;;;19.80;60.70;;;;;;5013118;28;20482;-77
2022/08/12 02:48:33;;;;;;;1.20;0.90;;;19.80;60.20;;;;;;5013708;28;20033;-77
2022/08/12 02:51:10;;;;;;;0.75;0.75;;;19.80;60.50;;;;;;5012907;28;20107;-77
2022/08/12 02:53:38;;;;;;;1.00;0.73;;;19.70;61.50;;;;;;5013312;28;20441;-77
2022/08/12 02:56:05;;;;;;;2.83;0.60;;;19.60;61.80;;;;;;5013579;28;20033;-77
2022/08/12 02:58:34;;;;;;;0.65;0.55;;;19.50;62.20;;;;;;5013455;28;20021;-76
2022/08/12 03:01:06;;;;;;;1.00;0.73;;;19.50;61.50;;;;;;5012976;28;20092;-77
2022/08/12 03:03:33;;;;;;;1.05;0.70;;;19.60;61.50;;;;;;5013540;28;20382;-77
2022/08/12 03:06:02;;;;;;;1.02;0.55;;;19.50;61.60;;;;;;5012676;28;20076;-76
2022/08/12 03:08:33;;;;;;;3.05;0.80;;;19.60;61.60;;;;;;5013330;28;20076;-74
2022/08/12 03:11:05;;;;;;;0.68;0.68;;;19.60;61.50;;;;;;5012866;28;20515;-75
2022/08/12 03:13:35;;;;;;;1.08;0.70;;;19.60;61.70;;;;;;5013280;28;20033;-74
2022/08/12 03:16:01;;;;;;;1.58;0.60;;;19.60;61.50;;;;;;5012701;28;20029;-76
2022/08/12 03:18:31;;;;;;;1.17;0.63;;;19.70;61.30;;;;;;5012665;28;20502;-77
2022/08/12 03:20:59;;;;;;;1.45;0.73;;;19.70;61.20;;;;;;5012654;28;20110;-77
2022/08/12 03:23:25;;;;;;;1.38;1.00;;;19.60;61.20;;;;;;5013029;28;20034;-77
2022/08/12 03:25:55;;;;;;;2.70;0.90;;;19.60;61.60;;;;;;5012558;28;20025;-77
2022/08/12 03:31:08;;;;;;;6.95;1.08;;;19.60;61.90;;;;;;5012709;28;20029;-76
2022/08/12 03:33:36;;;;;;;2.47;1.10;;;19.50;62.10;;;;;;4995324;28;20435;-76
2022/08/12 03:36:07;;;;;;;1.40;1.23;;;19.40;62.30;;;;;;5012180;28;20076;-75
2022/08/12 03:38:41;;;;;;;1.20;0.90;;;19.30;63.20;;;;;;5012710;28;20033;-76
2022/08/12 03:41:38;;;;;;;1.20;1.08;;;19.20;64.10;;;;;;5012463;28;20032;-75
2022/08/12 04:00:45;;;;;;;1.42;0.95;;;19.10;65.60;;;;;;5011909;28;20081;-79
2022/08/12 04:05:56;;;;;;;1.10;0.90;;;19.10;65.70;;;;;;5009282;28;20056;-75
2022/08/12 04:08:25;;;;;;;2.92;1.33;;;19.00;66.40;;;;;;5012679;28;20034;-75
2022/08/12 04:13:37;;;;;;;1.35;0.63;;;19.10;66.50;;;;;;5012396;28;20084;-77
2022/08/12 04:16:06;;;;;;;2.15;1.20;;;19.20;66.00;;;;;;5011869;28;20041;-76
2022/08/12 04:18:32;;;;;;;4.00;1.77;;;19.20;66.30;;;;;;5012272;28;20192;-75
2022/08/12 04:20:58;;;;;;;2.42;1.15;;;19.30;65.20;;;;;;5012105;28;20085;-75
2022/08/12 04:23:24;;;;;;;1.20;0.90;;;19.30;64.50;;;;;;5012378;28;20475;-76
2022/08/12 04:25:50;;;;;;;1.58;1.10;;;19.30;65.00;;;;;;5011765;28;20022;-75
2022/08/12 04:28:25;;;;;;;3.65;1.25;;;19.40;64.20;;;;;;5012282;28;20034;-75
2022/08/12 04:30:50;;;;;;;3.50;1.38;;;19.50;64.00;;;;;;5011887;28;20033;-76
2022/08/12 04:33:18;;;;;;;2.30;1.05;;;19.50;63.80;;;;;;5008853;28;20038;-77
2022/08/12 04:35:43;;;;;;;2.53;1.23;;;19.50;63.90;;;;;;5012171;28;20041;-76
2022/08/12 04:38:10;;;;;;;1.65;1.10;;;19.50;64.10;;;;;;5011867;28;20495;-75
2022/08/12 04:40:36;;;;;;;1.30;0.90;;;19.60;64.20;;;;;;5012111;28;20053;-76
2022/08/12 04:43:02;;;;;;;1.52;1.10;;;19.60;63.80;;;;;;4994437;28;20022;-76
2022/08/12 04:45:31;;;;;;;3.20;1.50;;;19.70;64.00;;;;;;5011989;28;20037;-75
2022/08/12 04:47:58;;;;;;;1.35;0.90;;;19.80;64.10;;;;;;5011429;28;20029;-74
2022/08/12 04:50:24;;;;;;;2.33;0.80;;;19.90;64.00;;;;;;5012106;28;20057;-76
2022/08/12 04:52:51;;;;;;;1.20;1.10;;;19.90;63.50;;;;;;5011776;28;20085;-76
2022/08/12 04:55:17;;;;;;;1.50;1.20;;;20.00;63.30;;;;;;5012046;28;20083;-75
2022/08/12 04:57:43;;;;;;;1.35;1.10;;;20.10;63.00;;;;;;5012035;28;20112;-76
2022/08/12 05:00:12;;;;;;;1.48;0.95;;;20.20;63.30;;;;;;4993981;28;20424;-76
2022/08/12 05:02:38;;;;;;;1.90;1.20;;;20.30;62.60;;;;;;5014438;28;20188;-76
2022/08/12 05:05:07;;;;;;;1.98;0.95;;;20.40;62.20;;;;;;5015295;28;20026;-76
2022/08/12 05:07:34;;;;;;;2.25;1.10;;;20.40;61.90;;;;;;5015417;28;20446;-76
2022/08/12 05:10:00;;;;;;;1.70;1.10;;;20.40;62.00;;;;;;5015084;28;20026;-76
2022/08/12 05:12:35;;;;;;;1.00;0.90;;;20.50;61.90;;;;;;5015303;28;20587;-76
2022/08/12 05:15:01;;;;;;;1.20;1.10;;;20.60;61.60;;;;;;5014831;28;20034;-76
2022/08/12 05:17:26;;;;;;;1.45;0.95;;;20.50;61.70;;;;;;5015052;28;20044;-77
2022/08/12 05:19:52;;;;;;;4.13;1.27;;;20.50;62.30;;;;;;5014927;28;20061;-77
2022/08/12 05:22:17;;;;;;;3.28;1.13;;;20.60;62.00;;;;;;5014934;28;20034;-77
2022/08/12 05:24:43;;;;;;;1.50;1.00;;;20.60;61.90;;;;;;5015072;28;20037;-77
2022/08/12 05:27:10;;;;;;;2.30;1.10;;;20.70;62.40;;;;;;5014124;28;20490;-76
2022/08/12 05:29:38;;;;;;;1.55;1.00;;;20.70;62.50;;;;;;5014743;28;20141;-77
2022/08/12 05:32:06;;;;;;;2.13;1.02;;;20.80;62.30;;;;;;5014168;28;20026;-76
2022/08/12 05:34:33;;;;;;;1.83;1.00;;;20.90;62.20;;;;;;5015060;28;20497;-77
2022/08/12 05:36:59;;;;;;;1.38;0.93;;;21.10;61.90;;;;;;5014274;28;20129;-77
2022/08/12 05:39:26;;;;;;;4.15;1.30;;;21.30;61.40;;;;;;5014951;28;20033;-77
2022/08/12 05:41:52;;;;;;;2.30;1.00;;;21.50;60.40;;;;;;5014370;28;20037;-78
2022/08/12 05:44:18;;;;;;;1.10;1.00;;;21.80;59.90;;;;;;5014837;28;20037;-77
2022/08/12 05:46:44;;;;;;;2.67;1.17;;;22.10;58.40;;;;;;5014800;28;20049;-76
2022/08/12 05:49:10;;;;;;;2.88;1.00;;;22.40;57.90;;;;;;5014591;28;20030;-76
2022/08/12 05:51:37;;;;;;;2.10;0.90;;;22.70;56.60;;;;;;5014869;28;20037;-76
2022/08/12 05:54:04;;;;;;;1.00;0.82;;;23.00;56.50;;;;;;5013855;28;20040;-76
2022/08/12 05:56:33;;;;;;;1.10;0.90;;;23.30;54.80;;;;;;5014138;28;20042;-76
2022/08/12 05:59:00;;;;;;;1.10;0.90;;;24.00;53.80;;;;;;5013901;28;20037;-76
2022/08/12 06:01:27;;;;;;;2.83;1.02;;;24.90;51.40;;;;;;4996680;28;20070;-74
2022/08/12 06:03:53;;;;;;;2.17;1.50;;;25.80;50.10;;;;;;5011599;28;20026;-79
2022/08/12 06:06:20;;;;;;;1.55;1.30;;;26.60;47.20;;;;;;4994077;28;20030;-75
2022/08/12 06:08:48;;;;;;;1.98;1.08;;;27.50;45.20;;;;;;4995060;28;20474;-74
2022/08/12 06:11:17;;;;;;;1.55;0.90;;;28.10;44.30;;;;;;4994188;28;20034;-77
2022/08/12 06:13:44;;;;;;;0.77;0.67;;;28.70;42.20;;;;;;4994025;28;20026;-77
2022/08/12 06:16:13;;;;;;;0.70;0.70;;;28.90;41.30;;;;;;4994135;28;20038;-75
2022/08/12 06:18:40;;;;;;;1.73;1.08;;;29.30;41.10;;;;;;4994609;28;20086;-76
2022/08/12 06:21:10;;;;;;;1.42;1.10;;;29.40;40.10;;;;;;4994205;28;20114;-76
2022/08/12 06:23:36;;;;;;;2.15;0.95;;;29.50;39.50;;;;;;4994682;28;20026;-77
2022/08/12 06:26:03;;;;;;;1.27;0.80;;;29.50;40.20;;;;;;4993973;28;20385;-77
2022/08/12 06:28:30;;;;;;;3.72;1.08;;;29.70;39.50;;;;;;4994346;28;20030;-77
2022/08/12 06:30:57;;;;;;;0.82;0.80;;;29.90;39.30;;;;;;5008696;28;20029;-78
2022/08/12 06:33:23;;;;;;;2.00;0.93;;;29.60;39.20;;;;;;5013700;28;20030;-77
2022/08/12 06:35:49;;;;;;;1.50;0.90;;;29.70;40.20;;;;;;5014616;28;20045;-77
2022/08/12 06:38:24;;;;;;;1.45;1.00;;;30.10;39.60;;;;;;5013938;28;20030;-77
2022/08/12 06:43:45;;;;;;;1.83;0.90;;;30.00;39.90;;;;;;5013728;28;20052;-76
2022/08/12 06:46:12;;;;;;;1.58;1.30;;;29.70;40.00;;;;;;5013242;28;20116;-77
2022/08/12 06:48:41;;;;;;;1.20;0.70;;;29.60;39.90;;;;;;5013409;28;20034;-77
2022/08/12 06:51:07;;;;;;;1.10;0.80;;;29.60;40.00;;;;;;5013295;28;20113;-77
2022/08/12 06:53:33;;;;;;;1.73;0.90;;;29.60;40.20;;;;;;5015352;28;20176;-78
2022/08/12 06:56:00;;;;;;;1.23;1.08;;;29.90;39.40;;;;;;5017319;28;20046;-79
2022/08/12 06:58:27;;;;;;;1.17;0.93;;;29.60;40.40;;;;;;5015549;28;20123;-78
2022/08/12 07:00:54;;;;;;;1.45;0.88;;;29.90;39.30;;;;;;5015600;28;20030;-78
2022/08/12 07:03:24;;;;;;;1.83;1.10;;;30.10;39.30;;;;;;5014982;28;20077;-77
2022/08/12 07:05:50;;;;;;;2.97;1.02;;;30.60;39.40;;;;;;4997743;28;20474;-77
2022/08/12 07:08:16;;;;;;;1.10;0.90;;;31.30;37.90;;;;;;5016227;28;20084;-77
2022/08/12 07:10:49;;;;;;;2.10;0.90;;;32.20;37.00;;;;;;4997968;28;20026;-77
2022/08/12 07:13:15;;;;;;;1.27;0.80;;;32.70;36.10;;;;;;4996699;28;20034;-78
2022/08/12 07:15:44;;;;;;;1.90;1.00;;;33.20;35.20;;;;;;5013592;28;20104;-78
2022/08/12 07:18:15;;;;;;;1.25;0.80;;;33.60;35.00;;;;;;5012865;28;20112;-78
2022/08/12 07:20:43;;;;;;;2.10;1.13;;;34.20;34.00;;;;;;5013190;28;20091;-78
2022/08/12 07:23:10;;;;;;;1.50;1.10;;;34.60;33.70;;;;;;5012831;28;20034;-78
2022/08/12 07:25:38;;;;;;;0.80;0.80;;;35.50;33.70;;;;;;5012374;28;20037;-78
2022/08/12 07:28:24;;;;;;;1.23;0.80;;;36.30;32.10;;;;;;5013168;28;20022;-77
2022/08/12 07:30:52;;;;;;;1.10;1.00;;;37.00;31.30;;;;;;5012375;28;20049;-78
2022/08/12 07:33:21;;;;;;;1.25;1.00;;;37.70;31.10;;;;;;5012792;28;20033;-77
2022/08/12 07:35:47;;;;;;;2.03;1.13;;;37.80;29.80;;;;;;5012848;28;20123;-78
2022/08/12 07:38:34;;;;;;;2.08;1.17;;;38.50;29.60;;;;;;5012705;28;20036;-77
2022/08/12 07:41:10;;;;;;;2.38;0.90;;;38.50;30.00;;;;;;5012767;28;20030;-79
2022/08/12 07:43:40;;;;;;;4.60;1.02;;;38.70;29.30;;;;;;5012863;28;20037;-77
2022/08/12 07:46:08;;;;;;;0.95;0.90;;;39.20;29.00;;;;;;5011710;28;20030;-76
2022/08/12 07:48:55;;;;;;;1.65;0.95;;;39.50;28.90;;;;;;5012656;28;20119;-79
2022/08/12 07:51:23;;;;;;;1.98;1.23;;;39.90;28.40;;;;;;4994175;28;20034;-77
2022/08/12 07:53:48;;;;;;;1.77;1.10;;;40.30;28.30;;;;;;5012022;28;20037;-78
2022/08/12 07:56:15;;;;;;;2.15;1.10;;;40.70;28.90;;;;;;5010882;28;20359;-78
2022/08/12 07:58:41;;;;;;;1.63;1.10;;;40.20;28.40;;;;;;4994857;28;20030;-78
2022/08/12 08:01:14;;;;;;;0.82;0.70;;;40.50;28.10;;;;;;5011746;28;20513;-78
2022/08/12 08:04:54;;;;;;;1.02;0.90;;;40.70;27.50;;;;;;5012601;28;20040;-77
2022/08/12 08:06:30;;;;;;;0.95;0.73;;;40.50;27.40;;;;;;5011618;28;20034;-77
2022/08/12 08:08:56;;;;;;;0.70;0.70;;;40.60;27.30;;;;;;5012616;28;20029;-78
2022/08/12 08:14:08;;;;;;;0.98;0.93;;;41.30;27.20;;;;;;5011973;28;20144;-77
2022/08/12 08:16:36;;;;;;;1.00;0.90;;;40.70;27.30;;;;;;5012403;28;20037;-77
2022/08/12 08:19:02;;;;;;;2.30;1.00;;;41.60;27.50;;;;;;5012196;28;20054;-79
2022/08/12 08:21:31;;;;;;;0.82;0.70;;;42.10;26.80;;;;;;5012202;28;20022;-77
2022/08/12 08:24:13;;;;;;;1.08;0.95;;;42.20;26.80;;;;;;5008761;28;20522;-77
2022/08/12 08:26:40;;;;;;;1.00;0.70;;;41.40;26.80;;;;;;5012680;28;20041;-78
2022/08/12 08:29:07;;;;;;;4.50;0.90;;;42.20;27.10;;;;;;5011396;28;20077;-79
2022/08/12 08:31:34;;;;;;;1.45;0.77;;;42.50;26.70;;;;;;5012900;28;20080;-78
2022/08/12 08:34:00;;;;;;;1.33;0.77;;;42.80;26.60;;;;;;5012403;28;20084;-78
2022/08/12 08:36:26;;;;;;;1.27;0.93;;;42.20;26.30;;;;;;5013805;28;20113;-78
2022/08/12 08:38:52;;;;;;;2.38;0.75;;;42.50;27.20;;;;;;5015684;28;20459;-78
2022/08/12 08:44:02;;;;;;;1.17;0.75;;;42.50;25.90;;;;;;5015869;28;20160;-78
2022/08/12 08:46:28;;;;;;;1.05;0.90;;;41.30;26.30;;;;;;5015295;28;20475;-77
2022/08/12 08:48:54;;;;;;;1.73;0.80;;;41.10;26.30;;;;;;5015766;28;20029;-78
2022/08/12 08:51:25;;;;;;;0.80;0.65;;;40.10;26.70;;;;;;5015114;28;20371;-78
2022/08/12 08:53:52;;;;;;;0.93;0.82;;;39.80;27.00;;;;;;5015640;28;20030;-78
2022/08/12 08:56:18;;;;;;;0.60;0.60;;;38.90;27.30;;;;;;4998002;28;20065;-78
2022/08/12 08:58:44;;;;;;;0.98;0.75;;;37.90;28.40;;;;;;5015557;28;20050;-75
2022/08/12 09:01:10;;;;;;;1.20;0.80;;;37.30;28.70;;;;;;5015389;28;20109;-77
2022/08/12 09:03:36;;;;;;;1.20;0.70;;;37.20;29.20;;;;;;5015196;28;20570;-77
2022/08/12 09:06:02;;;;;;;1.58;0.70;;;37.00;29.30;;;;;;5015541;28;20075;-78
2022/08/12 09:08:28;;;;;;;0.68;0.65;;;36.50;29.30;;;;;;5015271;28;20116;-78
2022/08/12 09:10:57;;;;;;;0.80;0.75;;;36.00;29.80;;;;;;5015296;28;20034;-78
2022/08/12 09:13:33;;;;;;;0.95;0.68;;;35.50;29.30;;;;;;5014939;28;20030;-78
2022/08/12 09:15:59;;;;;;;1.52;0.90;;;35.10;30.10;;;;;;5015274;28;20034;-78
2022/08/12 09:18:26;;;;;;;2.40;0.95;;;34.50;30.50;;;;;;5014239;28;20040;-76
2022/08/12 09:20:52;;;;;;;1.38;1.00;;;34.30;31.50;;;;;;5015235;28;20022;-78
2022/08/12 09:23:18;;;;;;;1.40;0.90;;;33.80;31.00;;;;;;5014532;28;20426;-78
2022/08/12 09:25:45;;;;;;;1.58;0.70;;;33.00;31.70;;;;;;5014972;28;20030;-78
2022/08/12 09:28:11;;;;;;;1.15;0.90;;;32.30;32.80;;;;;;5014483;28;20034;-78
2022/08/12 09:30:44;;;;;;;0.70;0.68;;;32.00;33.30;;;;;;5014927;28;20026;-77
2022/08/12 09:33:11;;;;;;;0.70;0.70;;;31.90;33.70;;;;;;5014725;28;20352;-78
2022/08/12 09:35:43;;;;;;;0.90;0.70;;;31.80;34.20;;;;;;5014385;28;20398;-78
2022/08/12 09:38:12;;;;;;;1.23;1.02;;;31.50;34.00;;;;;;5014570;28;20117;-78
2022/08/12 09:40:37;;;;;;;1.45;1.00;;;31.30;34.40;;;;;;5014467;28;20475;-77
2022/08/12 09:45:50;;;;;;;1.25;0.80;;;30.70;34.90;;;;;;5014589;28;20044;-78
2022/08/12 09:48:18;;;;;;;1.30;1.05;;;30.70;36.00;;;;;;5013276;28;20493;-78
2022/08/12 09:50:45;;;;;;;3.00;1.17;;;30.70;36.10;;;;;;5011317;28;20029;-77
2022/08/12 09:53:15;;;;;;;1.27;0.90;;;30.80;36.30;;;;;;4996486;28;20030;-77
2022/08/12 09:55:48;;;;;;;1.40;1.08;;;30.80;35.90;;;;;;5014418;28;20125;-77
2022/08/12 09:58:17;;;;;;;1.90;0.70;;;30.70;34.70;;;;;;5013879;28;20086;-76
2022/08/12 10:00:48;;;;;;;3.25;0.90;;;30.60;35.50;;;;;;5014213;28;20105;-78
2022/08/12 10:03:15;;;;;;;2.00;0.80;;;30.50;35.00;;;;;;5013941;28;20034;-77
2022/08/12 10:05:46;;;;;;;0.85;0.70;;;30.50;35.50;;;;;;5014086;28;20045;-77
2022/08/12 10:08:14;;;;;;;0.70;0.60;;;30.40;34.70;;;;;;5013575;28;20054;-77
2022/08/12 10:13:42;;;;;;;1.25;0.88;;;30.00;35.10;;;;;;5013865;28;20394;-76
2022/08/12 10:16:25;;;;;;;3.53;0.88;;;29.80;35.50;;;;;;5014218;28;20533;-77
2022/08/12 10:18:56;;;;;;;1.10;0.70;;;29.90;36.00;;;;;;5013506;28;20053;-76
2022/08/12 10:21:29;;;;;;;0.85;0.60;;;30.00;36.30;;;;;;4995974;28;20344;-76
2022/08/12 10:23:56;;;;;;;1.88;0.80;;;30.10;36.40;;;;;;5013926;28;20041;-76
2022/08/12 10:31:53;;;;;;;1.33;1.08;;;29.70;35.40;;;;;;4994169;28;20090;-77
2022/08/12 10:34:21;;;;;;;1.63;0.85;;;29.70;35.70;;;;;;4993739;28;20030;-77
2022/08/12 10:36:49;;;;;;;0.65;0.65;;;29.60;35.80;;;;;;4994104;28;20076;-77
2022/08/12 10:39:16;;;;;;;1.38;0.80;;;29.50;36.30;;;;;;4993774;28;20038;-76
2022/08/12 10:44:28;;;;;;;1.10;0.88;;;29.70;36.60;;;;;;4993419;28;20030;-77
2022/08/12 10:46:54;;;;;;;1.00;0.70;;;29.70;36.40;;;;;;4993977;28;20030;-76
2022/08/12 10:49:26;;;;;;;1.90;0.90;;;29.50;34.80;;;;;;4993149;28;20444;-76
2022/08/12 10:51:54;;;;;;;1.50;0.77;;;29.40;35.00;;;;;;4993814;28;20072;-76
2022/08/12 10:54:21;;;;;;;0.50;0.50;;;29.40;34.50;;;;;;4993345;28;20034;-77
2022/08/12 10:56:48;;;;;;;0.60;0.60;;;29.40;34.50;;;;;;4993801;28;20562;-77
2022/08/12 10:59:15;;;;;;;1.33;0.90;;;29.30;34.70;;;;;;4992422;28;20026;-80
2022/08/12 11:01:41;;;;;;;0.85;0.55;;;29.30;35.20;;;;;;4993389;28;20431;-79
2022/08/12 11:04:12;;;;;;;0.50;0.50;;;29.20;34.60;;;;;;4976143;28;20379;-77
2022/08/12 11:06:46;;;;;;;1.33;0.93;;;29.30;35.60;;;;;;4993237;28;20030;-77
2022/08/12 11:09:20;;;;;;;0.80;0.70;;;29.40;35.20;;;;;;4994262;28;20030;-76
2022/08/12 11:11:49;;;;;;;0.82;0.70;;;29.50;35.20;;;;;;4993646;28;20027;-77
2022/08/12 11:14:17;;;;;;;0.60;0.50;;;29.70;35.40;;;;;;4993219;28;20032;-78
2022/08/12 11:16:45;;;;;;;1.38;0.80;;;29.70;35.10;;;;;;4993298;28;20043;-78
2022/08/12 11:19:12;;;;;;;0.70;0.60;;;29.70;34.80;;;;;;4992938;28;20058;-76
2022/08/12 11:21:38;;;;;;;0.75;0.60;;;29.60;34.90;;;;;;4992959;28;20037;-76
2022/08/12 11:24:05;;;;;;;1.27;0.65;;;29.70;34.80;;;;;;4993440;28;20033;-75
2022/08/12 11:26:31;;;;;;;0.65;0.60;;;29.70;34.60;;;;;;4992904;28;20035;-76
2022/08/12 11:28:57;;;;;;;1.30;0.90;;;29.70;33.70;;;;;;4993270;28;20029;-77
2022/08/12 11:31:22;;;;;;;0.60;0.60;;;29.60;33.50;;;;;;4992462;28;20101;-77
2022/08/12 11:33:48;;;;;;;1.23;0.60;;;29.60;33.30;;;;;;4993197;28;20026;-75
2022/08/12 11:36:14;;;;;;;1.38;0.60;;;29.70;33.40;;;;;;4993083;28;20064;-76
2022/08/12 11:38:40;;;;;;;1.00;0.70;;;29.70;33.70;;;;;;4992490;28;20022;-77
2022/08/12 11:41:05;;;;;;;0.70;0.70;;;29.80;34.10;;;;;;4992972;28;20427;-77
2022/08/12 11:43:32;;;;;;;2.20;0.65;;;29.80;34.30;;;;;;4992702;28;20391;-78
2022/08/12 11:45:59;;;;;;;1.83;0.60;;;29.70;33.70;;;;;;4993903;28;20037;-78
2022/08/12 11:48:25;;;;;;;0.50;0.50;;;29.60;33.70;;;;;;5010715;28;20053;-77
2022/08/12 11:50:50;;;;;;;1.05;0.63;;;29.50;33.30;;;;;;5012607;28;20057;-77
2022/08/12 11:53:16;;;;;;;0.93;0.80;;;29.60;33.50;;;;;;5012270;28;20037;-76
2022/08/12 11:55:42;;;;;;;1.30;0.50;;;29.60;33.30;;;;;;5012033;28;20034;-77
2022/08/12 11:58:07;;;;;;;0.65;0.65;;;29.70;33.00;;;;;;5012295;28;20026;-76
2022/08/12 12:00:33;;;;;;;0.88;0.63;;;29.70;33.50;;;;;;5011896;28;20060;-76
2022/08/12 12:02:59;;;;;;;2.03;0.90;;;29.80;33.30;;;;;;5013001;28;20029;-76
2022/08/12 12:05:25;;;;;;;1.05;0.50;;;29.70;32.70;;;;;;5012136;28;20041;-78
2022/08/12 12:07:50;;;;;;;0.95;0.60;;;29.70;33.50;;;;;;5012502;28;20431;-75
2022/08/12 12:10:18;;;;;;;0.60;0.60;;;29.60;33.60;;;;;;5013294;28;20036;-77
2022/08/12 12:12:45;;;;;;;0.52;0.50;;;29.60;33.70;;;;;;5016372;28;20544;-77
2022/08/12 12:15:11;;;;;;;1.42;0.85;;;29.40;33.40;;;;;;5016340;28;20028;-77
2022/08/12 12:17:39;;;;;;;0.63;0.45;;;29.40;33.60;;;;;;5015834;28;20034;-78
2022/08/12 12:20:08;;;;;;;0.70;0.60;;;29.30;33.60;;;;;;5016251;28;20049;-77
2022/08/12 12:22:34;;;;;;;0.60;0.52;;;29.20;34.30;;;;;;5015832;28;20101;-77
2022/08/12 12:24:59;;;;;;;1.13;0.82;;;29.20;33.70;;;;;;5015931;28;20117;-77
2022/08/12 12:27:25;;;;;;;0.70;0.55;;;29.20;33.80;;;;;;5012496;28;20027;-77
2022/08/12 12:29:51;;;;;;;0.45;0.45;;;29.10;33.80;;;;;;5016076;28;20030;-78
2022/08/12 12:32:17;;;;;;;1.98;0.60;;;29.00;33.50;;;;;;4998263;28;20093;-76
2022/08/12 12:34:43;;;;;;;0.95;0.60;;;28.80;32.60;;;;;;5015578;28;20033;-75
2022/08/12 12:37:12;;;;;;;0.60;0.50;;;28.80;33.40;;;;;;5015912;28;20046;-76
2022/08/12 12:39:39;;;;;;;0.47;0.40;;;28.80;32.90;;;;;;5015646;28;20041;-76
2022/08/12 12:42:05;;;;;;;0.55;0.50;;;28.70;33.10;;;;;;5015872;28;20026;-76
2022/08/12 12:44:30;;;;;;;0.68;0.63;;;28.60;33.30;;;;;;5015434;28;20030;-76
2022/08/12 12:46:56;;;;;;;0.55;0.55;;;28.60;33.20;;;;;;5015611;28;20028;-75
2022/08/12 12:49:22;;;;;;;0.73;0.65;;;28.50;33.50;;;;;;5015067;28;20030;-78
2022/08/12 12:51:48;;;;;;;0.55;0.55;;;28.50;33.60;;;;;;5015755;28;20034;-77
2022/08/12 12:54:13;;;;;;;0.52;0.50;;;28.50;33.70;;;;;;4998048;28;20455;-77
2022/08/12 12:56:40;;;;;;;0.65;0.50;;;28.50;33.60;;;;;;5015379;28;20076;-77
2022/08/12 12:59:07;;;;;;;0.93;0.60;;;28.50;33.80;;;;;;5015630;28;20483;-77
2022/08/12 13:01:34;;;;;;;0.60;0.60;;;28.50;33.80;;;;;;5015084;28;20030;-78
2022/08/12 13:04:00;;;;;;;0.80;0.60;;;28.40;34.00;;;;;;5015353;28;20034;-77
2022/08/12 13:06:28;;;;;;;1.48;0.55;;;28.30;33.80;;;;;;5014833;28;20037;-77
2022/08/12 13:08:58;;;;;;;0.47;0.43;;;28.30;34.40;;;;;;5015187;28;20026;-78
2022/08/12 13:11:24;;;;;;;0.55;0.55;;;28.20;34.30;;;;;;5014713;28;20494;-78
2022/08/12 13:13:51;;;;;;;0.77;0.65;;;28.20;34.00;;;;;;5014845;28;20170;-76
2022/08/12 13:16:19;;;;;;;1.17;0.60;;;28.20;34.00;;;;;;5014796;28;20073;-77
2022/08/12 13:18:46;;;;;;;0.80;0.63;;;28.20;34.20;;;;;;5014302;28;20050;-80
2022/08/12 13:21:16;;;;;;;0.50;0.50;;;28.20;34.20;;;;;;5015090;28;20500;-79
2022/08/12 13:23:44;;;;;;;1.05;0.65;;;28.10;34.10;;;;;;5009694;28;20140;-75
2022/08/12 13:26:16;;;;;;;1.92;1.15;;;28.10;34.60;;;;;;5014572;28;20091;-76
2022/08/12 13:28:44;;;;;;;7.25;0.93;;;28.10;34.80;;;;;;5014253;28;20485;-76
2022/08/12 13:31:11;;;;;;;0.50;0.50;;;28.00;34.50;;;;;;5014633;28;20475;-76
2022/08/12 13:33:38;;;;;;;0.73;0.60;;;28.10;34.80;;;;;;5014623;28;20168;-77
2022/08/12 13:36:04;;;;;;;2.92;0.63;;;28.10;35.00;;;;;;5014455;28;20037;-76
2022/08/12 13:38:38;;;;;;;3.22;0.60;;;28.10;35.10;;;;;;5014193;28;20033;-76
2022/08/12 13:41:04;;;;;;;1.23;0.50;;;28.10;35.00;;;;;;5010165;28;20475;-75
2022/08/12 13:43:31;;;;;;;1.38;0.88;;;28.10;34.90;;;;;;5014083;28;20033;-76
2022/08/12 13:45:58;;;;;;;0.88;0.63;;;28.00;33.90;;;;;;5014299;28;20120;-76
2022/08/12 13:48:24;;;;;;;0.50;0.50;;;28.00;33.90;;;;;;5014332;28;20037;-76
2022/08/12 13:50:49;;;;;;;0.60;0.60;;;28.00;34.20;;;;;;5013847;28;20030;-76
2022/08/12 13:53:17;;;;;;;0.77;0.68;;;28.10;34.80;;;;;;5014640;28;20048;-74
2022/08/12 13:55:44;;;;;;;3.85;0.63;;;28.10;34.10;;;;;;5013766;28;20043;-75
2022/08/12 13:58:12;;;;;;;0.70;0.57;;;28.10;34.10;;;;;;5013885;28;20029;-76
2022/08/12 14:00:38;;;;;;;0.75;0.60;;;28.10;34.20;;;;;;5014078;28;20032;-76
2022/08/12 14:03:04;;;;;;;0.80;0.60;;;28.00;34.20;;;;;;5014314;28;20100;-74
2022/08/12 14:05:32;;;;;;;0.60;0.60;;;28.10;34.40;;;;;;5013885;28;20033;-76
2022/08/12 14:08:01;;;;;;;0.77;0.60;;;28.10;34.80;;;;;;5013909;28;20050;-75
2022/08/12 14:10:38;;;;;;;0.82;0.65;;;28.20;34.60;;;;;;5014303;28;20089;-75
2022/08/12 14:13:16;;;;;;;0.82;0.77;;;28.20;34.70;;;;;;5014136;28;20058;-75
2022/08/12 14:15:49;;;;;;;0.93;0.60;;;28.20;34.20;;;;;;5013553;28;20022;-75
2022/08/12 14:18:18;;;;;;;0.52;0.50;;;28.20;34.10;;;;;;5013805;28;20040;-75
2022/08/12 14:21:00;;;;;;;1.17;0.70;;;28.20;34.10;;;;;;5013897;28;20026;-74
2022/08/12 14:23:28;;;;;;;1.02;0.90;;;28.20;34.20;;;;;;5013713;28;20319;-74
2022/08/12 14:25:58;;;;;;;0.70;0.57;;;28.20;34.10;;;;;;5013848;28;20092;-76
2022/08/12 14:28:24;;;;;;;0.70;0.70;;;28.20;34.30;;;;;;5013819;28;20028;-76
2022/08/12 14:30:59;;;;;;;0.60;0.60;;;28.10;34.60;;;;;;5007535;28;20110;-75
2022/08/12 14:33:36;;;;;;;0.60;0.57;;;28.10;34.70;;;;;;4994030;28;20033;-74
2022/08/12 14:36:08;;;;;;;0.52;0.52;;;28.00;34.70;;;;;;4993672;28;20499;-75
2022/08/12 14:38:38;;;;;;;0.65;0.65;;;27.90;34.60;;;;;;4993737;28;20502;-76
2022/08/12 14:41:13;;;;;;;0.80;0.47;;;28.00;34.80;;;;;;4994175;28;20051;-76
2022/08/12 14:43:41;;;;;;;0.85;0.57;;;27.90;34.70;;;;;;4993520;28;20040;-75